Time;durP1;ratioP1;P1;durP2;ratioP2;P2;SDS_P1;SDS_P2;PMS_P1;PMS_P2;Temp;Humidity;BMP_temperature;BMP_pressure;BME280_temperature;BME280_humidity;BME280_pressure;Samples;Min_cycle;Max_cycle;Signal;HPM_P1;HPM_P2
2023/03/05 00:01:25;;;;;;;17.77;4.78;;;-0.60;76.10;;;;;;5054011;28;20106;-76
2023/03/05 00:03:53;;;;;;;12.07;5.50;;;-0.60;75.20;;;;;;5053986;28;20033;-76
2023/03/05 00:06:20;;;;;;;18.00;6.28;;;-0.60;75.70;;;;;;5053915;28;20092;-76
2023/03/05 00:08:47;;;;;;;40.63;16.17;;;-0.60;75.00;;;;;;5053801;28;20029;-77
2023/03/05 00:11:13;;;;;;;58.35;21.95;;;-0.60;75.40;;;;;;5053775;28;20028;-77
2023/03/05 00:13:39;;;;;;;16.50;6.90;;;-0.70;75.20;;;;;;5053927;28;20070;-76
2023/03/05 00:16:10;;;;;;;22.50;9.27;;;-0.70;74.10;;;;;;5053854;28;20095;-76
2023/03/05 00:18:37;;;;;;;62.47;23.85;;;-0.70;72.80;;;;;;5053744;28;20021;-76
2023/03/05 00:21:03;;;;;;;8.13;4.07;;;-0.70;72.50;;;;;;5052344;28;20132;-76
2023/03/05 00:23:29;;;;;;;10.23;3.50;;;-0.80;69.10;;;;;;5053509;28;20036;-77
2023/03/05 00:25:54;;;;;;;40.40;14.93;;;-0.90;67.10;;;;;;5053666;28;20029;-76
2023/03/05 00:28:20;;;;;;;88.78;32.17;;;-0.90;67.70;;;;;;5053641;28;20025;-76
2023/03/05 00:30:46;;;;;;;102.80;41.63;;;-0.80;68.20;;;;;;5053505;28;20043;-76
2023/03/05 00:33:12;;;;;;;121.15;44.47;;;-0.80;69.50;;;;;;5053430;28;20029;-76
2023/03/05 00:35:43;;;;;;;149.90;52.08;;;-0.80;69.80;;;;;;5052197;28;20028;-77
2023/03/05 00:38:09;;;;;;;125.38;45.30;;;-0.80;70.30;;;;;;5053477;28;20032;-77
2023/03/05 00:40:37;;;;;;;55.10;20.05;;;-0.80;70.40;;;;;;5053323;28;20497;-76
2023/03/05 00:43:03;;;;;;;100.60;39.33;;;-0.90;71.50;;;;;;5053409;28;20064;-77
2023/03/05 00:45:29;;;;;;;78.05;30.48;;;-0.90;70.30;;;;;;5051944;28;20021;-76
2023/03/05 00:47:54;;;;;;;92.35;37.70;;;-0.90;70.40;;;;;;5053608;28;20045;-77
2023/03/05 00:50:20;;;;;;;69.95;26.42;;;-0.90;70.90;;;;;;5051775;28;20083;-76
2023/03/05 00:52:45;;;;;;;62.88;25.85;;;-1.00;70.00;;;;;;5053259;28;20124;-77
2023/03/05 00:55:11;;;;;;;90.60;34.63;;;-1.00;70.50;;;;;;5053292;28;20025;-76
2023/03/05 00:57:37;;;;;;;33.78;14.25;;;-1.00;70.20;;;;;;5051923;28;20100;-77
2023/03/05 01:00:03;;;;;;;8.02;4.90;;;-1.00;69.20;;;;;;5053147;28;20021;-76
2023/03/05 01:02:29;;;;;;;35.85;13.65;;;-1.00;69.40;;;;;;5051627;28;20036;-77
2023/03/05 01:04:54;;;;;;;12.43;5.40;;;-1.00;68.90;;;;;;5053081;28;20025;-75
2023/03/05 01:07:20;;;;;;;11.43;5.13;;;-1.00;68.40;;;;;;5051823;28;20031;-79
2023/03/05 01:09:46;;;;;;;21.75;9.98;;;-1.00;68.10;;;;;;5051808;28;20078;-78
2023/03/05 01:12:11;;;;;;;40.80;17.67;;;-1.00;69.10;;;;;;5053125;28;20082;-77
2023/03/05 01:14:37;;;;;;;88.70;37.92;;;-1.00;68.40;;;;;;5052983;28;20032;-77
2023/03/05 01:17:02;;;;;;;22.20;9.35;;;-1.10;67.80;;;;;;5052934;28;20467;-78
2023/03/05 01:19:28;;;;;;;9.63;5.05;;;-1.10;67.30;;;;;;5053056;28;20390;-79
2023/03/05 01:21:54;;;;;;;19.80;10.63;;;-1.10;67.20;;;;;;5055075;28;20077;-78
2023/03/05 01:24:21;;;;;;;74.93;31.48;;;-1.20;66.60;;;;;;5055784;28;20070;-78
2023/03/05 01:26:48;;;;;;;53.53;22.98;;;-1.10;67.20;;;;;;5056792;28;20071;-80
2023/03/05 01:29:14;;;;;;;52.90;20.52;;;-1.10;67.70;;;;;;5055555;28;20167;-78
2023/03/05 01:31:40;;;;;;;41.42;18.75;;;-1.10;68.20;;;;;;5056762;28;20095;-78
2023/03/05 01:34:05;;;;;;;31.30;12.85;;;-1.10;67.90;;;;;;5055454;28;20488;-79
2023/03/05 01:36:31;;;;;;;27.25;12.50;;;-1.20;67.90;;;;;;5055369;28;20506;-77
2023/03/05 01:38:57;;;;;;;29.98;13.93;;;-1.20;68.70;;;;;;5056779;28;20036;-78
2023/03/05 01:41:22;;;;;;;29.48;12.02;;;-1.10;69.50;;;;;;5056408;28;20385;-78
2023/03/05 01:43:51;;;;;;;40.40;15.57;;;-1.20;68.90;;;;;;5056523;28;20123;-78
2023/03/05 01:46:33;;;;;;;33.33;11.70;;;-1.10;68.90;;;;;;5054901;28;20052;-79
2023/03/05 01:49:04;;;;;;;33.28;14.88;;;-1.10;70.00;;;;;;5055234;28;20025;-78
2023/03/05 01:51:35;;;;;;;36.40;16.35;;;-1.20;70.70;;;;;;5056551;28;20029;-78
2023/03/05 01:54:02;;;;;;;34.47;13.95;;;-1.10;70.80;;;;;;5056413;28;20083;-79
2023/03/05 01:56:29;;;;;;;23.35;8.80;;;-1.10;70.30;;;;;;5056290;28;20032;-79
2023/03/05 01:59:02;;;;;;;31.52;12.23;;;-1.10;70.70;;;;;;5055060;28;20017;-78
2023/03/05 02:01:49;;;;;;;35.33;12.35;;;-1.10;70.80;;;;;;5056382;28;20491;-79
2023/03/05 02:04:17;;;;;;;44.08;16.55;;;-1.10;71.10;;;;;;5056125;28;20037;-78
2023/03/05 02:06:44;;;;;;;59.63;26.88;;;-1.10;71.00;;;;;;5056148;28;20387;-78
2023/03/05 02:09:10;;;;;;;19.33;10.98;;;-1.20;69.50;;;;;;5054929;28;20104;-78
2023/03/05 02:11:36;;;;;;;27.45;10.95;;;-1.10;69.50;;;;;;5056029;28;20514;-78
2023/03/05 02:14:03;;;;;;;18.30;7.82;;;-1.10;70.60;;;;;;5056346;28;20060;-79
2023/03/05 02:16:35;;;;;;;25.58;10.70;;;-1.10;69.60;;;;;;5055832;28;20021;-79
2023/03/05 02:19:06;;;;;;;15.85;8.38;;;-1.20;70.30;;;;;;5055983;28;20022;-78
2023/03/05 02:21:46;;;;;;;40.85;13.65;;;-1.20;71.00;;;;;;5055910;28;20116;-77
2023/03/05 02:24:18;;;;;;;27.13;11.75;;;-1.20;71.00;;;;;;5055948;28;20104;-77
2023/03/05 02:26:45;;;;;;;34.88;14.05;;;-1.20;71.30;;;;;;5055801;28;20107;-77
2023/03/05 02:29:17;;;;;;;24.27;9.25;;;-1.20;71.40;;;;;;5069651;28;20031;-78
2023/03/05 02:31:43;;;;;;;28.58;10.25;;;-1.20;71.50;;;;;;5074291;28;20029;-77
2023/03/05 02:34:09;;;;;;;15.55;7.25;;;-1.20;71.40;;;;;;5075712;28;20051;-78
2023/03/05 02:36:35;;;;;;;17.05;6.78;;;-1.20;71.60;;;;;;5074289;28;20020;-78
2023/03/05 02:39:01;;;;;;;21.60;8.05;;;-1.20;71.50;;;;;;5075749;28;20027;-78
2023/03/05 02:41:26;;;;;;;14.07;5.93;;;-1.30;71.50;;;;;;5074166;28;20489;-78
2023/03/05 02:43:52;;;;;;;16.85;7.68;;;-1.30;71.70;;;;;;5075468;28;20064;-78
2023/03/05 02:46:18;;;;;;;22.48;8.15;;;-1.30;72.50;;;;;;5075151;28;20037;-79
2023/03/05 02:48:44;;;;;;;22.50;8.27;;;-1.30;72.10;;;;;;5074131;28;20521;-78
2023/03/05 02:51:09;;;;;;;14.15;7.53;;;-1.30;73.00;;;;;;5074040;28;20033;-79
2023/03/05 02:53:35;;;;;;;15.30;7.70;;;-1.30;73.90;;;;;;5073713;28;20024;-77
2023/03/05 02:56:01;;;;;;;17.40;7.97;;;-1.30;75.10;;;;;;5074044;28;20025;-77
2023/03/05 02:58:26;;;;;;;18.48;8.90;;;-1.30;76.50;;;;;;5073981;28;20032;-79
2023/03/05 03:00:52;;;;;;;18.73;7.93;;;-1.30;77.80;;;;;;5073883;28;20016;-77
2023/03/05 03:03:17;;;;;;;19.23;9.25;;;-1.40;78.90;;;;;;5075121;28;20036;-79
2023/03/05 03:05:43;;;;;;;17.25;7.53;;;-1.30;80.20;;;;;;5073813;28;20016;-78
2023/03/05 03:08:09;;;;;;;14.18;7.82;;;-1.30;81.20;;;;;;5073775;28;20055;-78
2023/03/05 03:10:35;;;;;;;17.40;8.23;;;-1.30;81.70;;;;;;5073572;28;20024;-79
2023/03/05 03:13:00;;;;;;;18.77;9.52;;;-1.30;82.40;;;;;;5060243;28;20105;-77
2023/03/05 03:15:26;;;;;;;25.80;10.45;;;-1.40;81.30;;;;;;5053353;28;20025;-77
2023/03/05 03:17:53;;;;;;;24.23;9.35;;;-1.40;81.30;;;;;;5054628;28;20025;-77
2023/03/05 03:20:20;;;;;;;18.67;9.50;;;-1.50;81.50;;;;;;5053122;28;20025;-77
2023/03/05 03:22:46;;;;;;;19.58;10.30;;;-1.40;81.70;;;;;;5054285;28;20136;-77
2023/03/05 03:25:17;;;;;;;21.48;9.43;;;-1.40;82.00;;;;;;5053254;28;20485;-78
2023/03/05 03:27:43;;;;;;;18.40;8.90;;;-1.40;81.90;;;;;;5054454;28;20040;-77
2023/03/05 03:30:10;;;;;;;17.27;8.95;;;-1.40;81.70;;;;;;5053044;28;20123;-78
2023/03/05 03:32:36;;;;;;;30.38;15.43;;;-1.40;81.10;;;;;;5052787;28;20040;-78
2023/03/05 03:35:02;;;;;;;32.75;15.85;;;-1.40;82.50;;;;;;5053042;28;20021;-77
2023/03/05 03:37:29;;;;;;;40.33;19.90;;;-1.40;81.60;;;;;;5052754;28;20023;-78
2023/03/05 03:39:55;;;;;;;34.45;15.98;;;-1.40;81.40;;;;;;5053087;28;20083;-78
2023/03/05 03:42:21;;;;;;;62.92;29.85;;;-1.40;82.00;;;;;;5053629;28;20033;-78
2023/03/05 03:44:48;;;;;;;27.35;11.90;;;-1.40;82.40;;;;;;5052262;28;20491;-78
2023/03/05 03:47:14;;;;;;;17.63;7.97;;;-1.40;81.80;;;;;;5053806;28;20103;-77
2023/03/05 03:49:39;;;;;;;25.38;12.43;;;-1.40;81.00;;;;;;5054046;28;20017;-78
2023/03/05 03:52:07;;;;;;;17.02;9.05;;;-1.40;80.70;;;;;;5055550;28;20523;-77
2023/03/05 03:54:32;;;;;;;18.02;8.48;;;-1.40;80.50;;;;;;5068868;28;20048;-78
2023/03/05 03:56:58;;;;;;;11.75;6.93;;;-1.40;79.60;;;;;;5074034;28;20056;-79
2023/03/05 03:59:24;;;;;;;19.95;9.40;;;-1.40;79.30;;;;;;5072757;28;20389;-78
2023/03/05 04:01:49;;;;;;;15.55;8.15;;;-1.50;78.70;;;;;;5072474;28;20433;-79
2023/03/05 04:04:15;;;;;;;12.23;5.88;;;-1.50;78.00;;;;;;5073897;28;20017;-79
2023/03/05 04:06:41;;;;;;;19.65;8.68;;;-1.50;77.20;;;;;;5072520;28;20058;-77
2023/03/05 04:09:07;;;;;;;27.88;10.73;;;-1.50;76.70;;;;;;5072517;28;20470;-78
2023/03/05 04:11:34;;;;;;;25.67;8.95;;;-1.60;76.40;;;;;;5073839;28;20367;-78
2023/03/05 04:13:59;;;;;;;19.38;7.88;;;-1.60;76.60;;;;;;5073768;28;20024;-77
2023/03/05 04:16:25;;;;;;;23.55;8.32;;;-1.60;77.30;;;;;;5073727;28;20032;-78
2023/03/05 04:18:51;;;;;;;14.68;6.80;;;-1.60;78.10;;;;;;5073643;28;20052;-77
2023/03/05 04:21:17;;;;;;;14.35;6.68;;;-1.60;79.10;;;;;;5072296;28;20024;-77
2023/03/05 04:23:42;;;;;;;14.57;7.53;;;-1.60;80.00;;;;;;5072308;28;20465;-77
2023/03/05 04:26:08;;;;;;;15.88;8.32;;;-1.50;80.00;;;;;;5073622;28;20497;-78
2023/03/05 04:28:34;;;;;;;14.70;6.25;;;-1.60;80.00;;;;;;5072479;28;20091;-79
2023/03/05 04:31:00;;;;;;;19.50;7.65;;;-1.60;80.10;;;;;;5073641;28;20079;-78
2023/03/05 04:33:25;;;;;;;17.00;7.88;;;-1.60;80.70;;;;;;5073547;28;20086;-77
2023/03/05 04:35:51;;;;;;;18.13;7.28;;;-1.60;81.30;;;;;;5073371;28;20040;-77
2023/03/05 04:38:17;;;;;;;13.30;6.82;;;-1.60;82.00;;;;;;5073512;28;20106;-79
2023/03/05 04:40:44;;;;;;;15.60;8.98;;;-1.60;82.00;;;;;;5072007;28;20086;-78
2023/03/05 04:43:09;;;;;;;15.25;7.72;;;-1.60;82.50;;;;;;5072044;28;20024;-77
2023/03/05 04:45:39;;;;;;;16.23;7.78;;;-1.60;83.10;;;;;;5068045;28;20021;-77
2023/03/05 04:48:05;;;;;;;22.33;10.18;;;-1.60;83.50;;;;;;5053386;28;20053;-77
2023/03/05 04:50:31;;;;;;;19.35;8.25;;;-1.60;83.60;;;;;;5051876;28;20094;-79
2023/03/05 04:52:56;;;;;;;23.08;8.88;;;-1.60;83.40;;;;;;5051901;28;20024;-78
2023/03/05 04:55:22;;;;;;;15.85;7.75;;;-1.70;83.30;;;;;;5053195;28;20072;-79
2023/03/05 04:57:48;;;;;;;17.55;7.85;;;-1.70;83.30;;;;;;5053161;28;20021;-79
2023/03/05 05:00:15;;;;;;;15.10;7.80;;;-1.70;83.10;;;;;;5053170;28;20478;-77
2023/03/05 05:02:46;;;;;;;15.15;6.70;;;-1.70;83.10;;;;;;5053090;28;20033;-78
2023/03/05 05:05:17;;;;;;;19.20;8.38;;;-1.70;83.30;;;;;;5051811;28;20013;-78
2023/03/05 05:07:43;;;;;;;17.77;7.65;;;-1.70;82.90;;;;;;5051857;28;20029;-77
2023/03/05 05:10:10;;;;;;;14.45;6.85;;;-1.80;82.20;;;;;;5053086;28;20029;-79
2023/03/05 05:12:36;;;;;;;10.30;4.55;;;-1.80;82.60;;;;;;5051869;28;20129;-77
2023/03/05 05:15:03;;;;;;;18.45;9.98;;;-1.80;82.60;;;;;;5053080;28;20021;-78
2023/03/05 05:17:31;;;;;;;17.13;8.70;;;-1.80;82.70;;;;;;5053118;28;20017;-77
2023/03/05 05:19:58;;;;;;;13.32;6.78;;;-1.80;83.80;;;;;;5052923;28;20052;-77
2023/03/05 05:22:24;;;;;;;13.85;6.82;;;-1.90;84.20;;;;;;5052884;28;20048;-79
2023/03/05 05:24:50;;;;;;;9.52;6.18;;;-1.90;85.20;;;;;;5051647;28;20099;-77
2023/03/05 05:27:15;;;;;;;11.43;5.20;;;-1.90;86.00;;;;;;5051587;28;20075;-78
2023/03/05 05:29:41;;;;;;;10.82;5.05;;;-1.90;86.40;;;;;;5051553;28;20021;-78
2023/03/05 05:32:07;;;;;;;12.05;5.28;;;-1.90;86.70;;;;;;5051574;28;20533;-78
2023/03/05 05:34:33;;;;;;;13.10;4.82;;;-1.90;87.00;;;;;;5052767;28;20017;-77
2023/03/05 05:36:58;;;;;;;12.52;5.10;;;-2.00;88.20;;;;;;5052878;28;20071;-77
2023/03/05 05:39:24;;;;;;;7.95;4.47;;;-2.00;89.80;;;;;;5052769;28;20029;-78
2023/03/05 05:41:51;;;;;;;9.38;4.80;;;-2.00;91.30;;;;;;5051443;28;20525;-78
2023/03/05 05:44:16;;;;;;;13.13;6.70;;;-2.00;92.90;;;;;;5051503;28;20456;-79
2023/03/05 05:46:42;;;;;;;15.27;5.70;;;-1.90;94.00;;;;;;5052450;28;20132;-77
2023/03/05 05:49:08;;;;;;;10.80;6.20;;;-2.00;94.70;;;;;;5051337;28;20025;-77
2023/03/05 05:51:33;;;;;;;17.48;7.13;;;-1.90;95.00;;;;;;5052590;28;20025;-78
2023/03/05 05:53:59;;;;;;;14.40;5.75;;;-1.90;95.20;;;;;;5051461;28;20518;-78
2023/03/05 05:56:25;;;;;;;9.85;5.97;;;-2.00;95.90;;;;;;5052621;28;20075;-79
2023/03/05 05:58:50;;;;;;;12.10;7.00;;;-2.00;96.70;;;;;;5051426;28;20067;-79
2023/03/05 06:01:28;;;;;;;17.38;8.27;;;-2.00;97.50;;;;;;5051128;28;20131;-78
2023/03/05 06:03:55;;;;;;;11.82;6.15;;;-1.90;98.60;;;;;;5052515;28;20510;-78
2023/03/05 06:06:23;;;;;;;10.52;5.97;;;-1.90;99.30;;;;;;5052047;28;20032;-77
2023/03/05 06:08:49;;;;;;;22.73;7.40;;;-1.90;99.80;;;;;;5054976;28;20036;-78
2023/03/05 06:11:15;;;;;;;16.45;7.03;;;-1.90;99.90;;;;;;5054860;28;20386;-79
2023/03/05 06:13:41;;;;;;;13.70;7.35;;;-1.90;99.80;;;;;;5056452;28;20025;-78
2023/03/05 06:16:10;;;;;;;11.10;6.57;;;-1.90;99.90;;;;;;5054633;28;20104;-79
2023/03/05 06:18:36;;;;;;;13.65;6.80;;;-1.80;99.80;;;;;;5054744;28;20406;-78
2023/03/05 06:21:05;;;;;;;12.80;6.47;;;-1.80;99.30;;;;;;5054661;28;20036;-79
2023/03/05 06:23:32;;;;;;;18.35;7.20;;;-1.80;99.80;;;;;;5055877;28;20103;-77
2023/03/05 06:25:59;;;;;;;13.65;7.13;;;-1.80;99.90;;;;;;5055976;28;20043;-78
2023/03/05 06:28:25;;;;;;;10.80;6.13;;;-1.70;99.90;;;;;;5055899;28;20027;-77
2023/03/05 06:31:02;;;;;;;21.35;9.88;;;-1.70;99.90;;;;;;5054515;28;20429;-77
2023/03/05 06:33:28;;;;;;;19.23;9.02;;;-1.70;99.90;;;;;;5055671;28;20032;-77
2023/03/05 06:35:54;;;;;;;27.15;10.95;;;-1.60;98.90;;;;;;5055622;28;20037;-78
2023/03/05 06:38:19;;;;;;;26.40;11.23;;;-1.60;97.90;;;;;;5054251;28;20075;-77
2023/03/05 06:40:45;;;;;;;29.33;12.77;;;-1.50;96.70;;;;;;5055555;28;20024;-78
2023/03/05 06:43:11;;;;;;;30.70;13.13;;;-1.50;95.80;;;;;;5055328;28;20045;-77
2023/03/05 06:45:36;;;;;;;27.20;12.77;;;-1.50;95.00;;;;;;5054124;28;20086;-79
2023/03/05 06:48:02;;;;;;;27.45;11.80;;;-1.50;94.30;;;;;;5053924;28;20033;-79
2023/03/05 06:50:28;;;;;;;29.42;12.23;;;-1.40;94.20;;;;;;5054172;28;20071;-79
2023/03/05 06:52:53;;;;;;;26.13;12.10;;;-1.40;94.00;;;;;;5055390;28;20074;-79
2023/03/05 06:55:20;;;;;;;31.73;12.82;;;-1.30;94.00;;;;;;5055290;28;20025;-78
2023/03/05 06:57:45;;;;;;;29.35;13.43;;;-1.30;93.60;;;;;;5056467;28;20024;-79
2023/03/05 07:00:12;;;;;;;31.85;14.60;;;-1.30;93.70;;;;;;5063554;28;20112;-77
2023/03/05 07:02:38;;;;;;;25.05;11.00;;;-1.20;93.70;;;;;;5062200;28;20044;-77
2023/03/05 07:05:04;;;;;;;24.38;11.82;;;-1.20;92.50;;;;;;5064322;28;20017;-80
2023/03/05 07:07:31;;;;;;;18.75;9.30;;;-1.10;92.90;;;;;;5063823;28;20028;-78
2023/03/05 07:09:56;;;;;;;26.33;11.50;;;-1.10;93.10;;;;;;5055080;28;20035;-78
2023/03/05 07:12:22;;;;;;;26.48;12.02;;;-1.10;93.10;;;;;;5054804;28;20115;-79
2023/03/05 07:14:48;;;;;;;20.15;11.65;;;-1.00;92.80;;;;;;5061400;28;20021;-79
2023/03/05 07:17:14;;;;;;;17.15;9.75;;;-1.00;93.10;;;;;;5063624;28;20044;-78
2023/03/05 07:19:40;;;;;;;22.15;10.57;;;-0.90;93.30;;;;;;5059965;28;20387;-79
2023/03/05 07:22:07;;;;;;;25.15;11.68;;;-0.90;92.80;;;;;;5057499;28;20068;-78
2023/03/05 07:24:33;;;;;;;29.98;12.35;;;-0.90;92.70;;;;;;5053384;28;20021;-77
2023/03/05 07:26:59;;;;;;;29.30;13.00;;;-0.80;93.10;;;;;;5054647;28;20032;-79
2023/03/05 07:29:26;;;;;;;24.88;11.73;;;-0.80;92.80;;;;;;5053255;28;20066;-75
2023/03/05 07:31:52;;;;;;;21.55;10.77;;;-0.80;93.00;;;;;;5057115;28;20020;-76
2023/03/05 07:34:19;;;;;;;38.67;15.30;;;-0.80;93.10;;;;;;5071754;28;20021;-77
2023/03/05 07:36:45;;;;;;;25.55;11.70;;;-0.70;94.10;;;;;;5068450;28;20025;-76
2023/03/05 07:39:12;;;;;;;24.08;13.15;;;-0.80;92.70;;;;;;5074485;28;20081;-76
2023/03/05 07:41:38;;;;;;;23.60;13.55;;;-0.70;93.50;;;;;;5058995;28;20025;-76
2023/03/05 07:44:04;;;;;;;27.95;12.60;;;-0.70;93.40;;;;;;5054105;28;20102;-76
2023/03/05 07:46:32;;;;;;;19.45;12.13;;;-0.70;94.10;;;;;;5052433;28;20483;-76
2023/03/05 07:48:58;;;;;;;39.60;14.68;;;-0.60;95.00;;;;;;5052764;28;20017;-76
2023/03/05 07:51:25;;;;;;;33.60;15.32;;;-0.60;95.30;;;;;;5053781;28;20044;-76
2023/03/05 07:53:52;;;;;;;33.40;15.98;;;-0.50;95.60;;;;;;5053850;28;20529;-76
2023/03/05 07:56:30;;;;;;;73.68;29.10;;;-0.50;95.60;;;;;;5053764;28;20487;-76
2023/03/05 07:58:57;;;;;;;37.15;16.77;;;-0.40;95.80;;;;;;5064466;28;20367;-76
2023/03/05 08:01:22;;;;;;;39.88;17.05;;;-0.40;96.00;;;;;;5063969;28;20013;-76
2023/03/05 08:03:48;;;;;;;33.38;17.30;;;-0.40;95.30;;;;;;5056257;28;20051;-76
2023/03/05 08:06:14;;;;;;;53.33;22.13;;;-0.30;95.80;;;;;;5052554;28;20029;-76
2023/03/05 08:08:40;;;;;;;241.43;112.50;;;-0.20;96.80;;;;;;5053538;28;20030;-76
2023/03/05 08:11:08;;;;;;;52.60;24.25;;;-0.20;96.20;;;;;;5066286;28;20049;-76
2023/03/05 08:13:34;;;;;;;41.38;20.23;;;-0.10;96.50;;;;;;5054540;28;20029;-76
2023/03/05 08:16:13;;;;;;;34.58;18.83;;;-0.10;95.20;;;;;;5052095;28;20028;-76
2023/03/05 08:18:39;;;;;;;31.73;17.42;;;-0.20;94.10;;;;;;5051144;28;20079;-77
2023/03/05 08:21:05;;;;;;;34.25;17.35;;;-0.10;93.60;;;;;;5033678;28;20026;-77
2023/03/05 08:23:33;;;;;;;40.53;19.25;;;-0.20;93.50;;;;;;5033784;28;20049;-76
2023/03/05 08:25:58;;;;;;;32.53;16.77;;;-0.10;94.00;;;;;;5033517;28;20025;-76
2023/03/05 08:28:24;;;;;;;59.25;25.27;;;-0.10;93.90;;;;;;5033461;28;20025;-76
2023/03/05 08:30:50;;;;;;;36.60;18.50;;;0.00;93.60;;;;;;5031234;28;20113;-76
2023/03/05 08:33:18;;;;;;;197.00;69.82;;;0.10;93.40;;;;;;5032112;28;20646;-76
2023/03/05 08:35:44;;;;;;;38.80;17.63;;;0.10;93.50;;;;;;5032017;28;20029;-78
2023/03/05 08:38:10;;;;;;;31.15;16.05;;;0.20;93.60;;;;;;5032089;28;20017;-78
2023/03/05 08:40:35;;;;;;;28.52;13.57;;;0.30;93.40;;;;;;5033246;28;20531;-80
2023/03/05 08:43:01;;;;;;;28.02;12.80;;;0.30;92.70;;;;;;5031996;28;20084;-77
2023/03/05 08:45:27;;;;;;;21.85;12.63;;;0.40;92.10;;;;;;5029874;28;20030;-76
2023/03/05 08:47:56;;;;;;;22.52;12.93;;;0.40;91.00;;;;;;5028755;28;20145;-75
2023/03/05 08:50:23;;;;;;;24.50;12.60;;;0.40;90.50;;;;;;5028015;28;20028;-76
2023/03/05 08:52:49;;;;;;;28.27;15.70;;;0.40;91.10;;;;;;5028234;28;20110;-78
2023/03/05 08:55:15;;;;;;;24.83;13.57;;;0.40;91.90;;;;;;5028588;28;20032;-78
2023/03/05 08:57:40;;;;;;;29.05;15.45;;;0.40;92.90;;;;;;5028552;28;20017;-78
2023/03/05 09:00:09;;;;;;;33.15;17.27;;;0.50;93.30;;;;;;5030759;28;20544;-79
2023/03/05 09:02:35;;;;;;;24.67;13.45;;;0.50;92.70;;;;;;5051406;28;20029;-76
2023/03/05 09:05:00;;;;;;;32.22;14.68;;;0.60;93.70;;;;;;5073091;28;20009;-78
2023/03/05 09:07:26;;;;;;;33.13;17.55;;;0.50;93.50;;;;;;5071624;28;20024;-79
2023/03/05 09:09:51;;;;;;;33.00;15.63;;;0.50;94.10;;;;;;5071725;28;20016;-77
2023/03/05 09:12:17;;;;;;;26.63;14.27;;;0.60;94.60;;;;;;5072961;28;20097;-78
2023/03/05 09:14:43;;;;;;;27.27;13.02;;;0.70;95.60;;;;;;5073336;28;20023;-78
2023/03/05 09:17:08;;;;;;;22.20;12.77;;;0.70;94.90;;;;;;5071741;28;20032;-77
2023/03/05 09:19:34;;;;;;;24.45;11.90;;;0.80;94.40;;;;;;5072878;28;20378;-77
2023/03/05 09:21:59;;;;;;;18.55;10.10;;;0.70;93.50;;;;;;5072662;28;20028;-78
2023/03/05 09:24:25;;;;;;;20.45;9.93;;;0.60;93.20;;;;;;5072831;28;20127;-79
2023/03/05 09:26:50;;;;;;;20.90;10.75;;;0.60;94.20;;;;;;5072700;28;20091;-79
2023/03/05 09:29:16;;;;;;;22.48;12.10;;;0.50;95.40;;;;;;5072713;28;20032;-76
2023/03/05 09:31:42;;;;;;;370.63;130.98;;;0.50;96.20;;;;;;5071755;28;20020;-78
2023/03/05 09:34:10;;;;;;;301.70;106.28;;;0.40;97.20;;;;;;5071384;28;20088;-76
2023/03/05 09:36:36;;;;;;;474.15;171.60;;;0.30;99.00;;;;;;5072448;28;20028;-77
2023/03/05 09:39:03;;;;;;;328.60;112.75;;;0.30;99.90;;;;;;5072839;28;20527;-78
2023/03/05 09:41:36;;;;;;;241.00;83.95;;;0.30;99.90;;;;;;5072511;28;20081;-77
2023/03/05 09:44:33;;;;;;;245.25;80.72;;;0.30;99.90;;;;;;5076846;28;20048;-78
2023/03/05 09:46:59;;;;;;;342.67;118.03;;;0.30;99.90;;;;;;5076458;28;20053;-77
2023/03/05 09:49:39;;;;;;;251.95;86.53;;;0.50;99.90;;;;;;5092170;28;20078;-77
2023/03/05 09:52:15;;;;;;;633.97;251.57;;;0.60;99.90;;;;;;5076561;28;20499;-78
2023/03/05 09:54:43;;;;;;;444.42;146.32;;;0.70;99.90;;;;;;5076457;28;20020;-78
2023/03/05 09:57:18;;;;;;;302.80;106.72;;;0.70;99.90;;;;;;5076409;28;20155;-77
2023/03/05 09:59:56;;;;;;;147.98;55.20;;;0.70;99.90;;;;;;5076452;28;20032;-78
2023/03/05 10:02:27;;;;;;;130.95;43.05;;;0.80;99.90;;;;;;5076269;28;20036;-77
2023/03/05 10:04:52;;;;;;;117.88;38.38;;;0.70;99.90;;;;;;5091919;28;20029;-77
2023/03/05 10:07:25;;;;;;;71.75;27.02;;;0.70;99.90;;;;;;5085428;28;20056;-77
2023/03/05 10:09:59;;;;;;;128.80;42.40;;;0.70;99.90;;;;;;5054029;28;20048;-77
2023/03/05 10:12:41;;;;;;;131.48;57.22;;;0.60;99.90;;;;;;5055368;28;20018;-77
2023/03/05 10:15:34;;;;;;;294.15;95.82;;;0.60;99.90;;;;;;5053921;28;20029;-79
2023/03/05 10:18:12;;;;;;;;;;;0.50;99.90;;;;;;5054441;28;20057;-79
2023/03/05 10:20:48;;;;;;;74.93;27.23;;;0.40;99.90;;;;;;5055339;28;19943;-79
2023/03/05 10:23:27;;;;;;;70.22;24.73;;;0.30;99.90;;;;;;5053558;28;20033;-79
2023/03/05 10:26:21;;;;;;;97.30;42.42;;;0.30;99.90;;;;;;5055175;28;20028;-77
2023/03/05 10:28:53;;;;;;;137.52;57.22;;;0.30;99.90;;;;;;5053255;28;20479;-79
2023/03/05 10:31:28;;;;;;;98.85;32.40;;;0.20;99.90;;;;;;5054606;28;20021;-77
2023/03/05 10:34:21;;;;;;;83.05;30.77;;;0.10;99.90;;;;;;5054542;28;20029;-77
2023/03/05 10:37:17;;;;;;;46.75;22.55;;;0.10;99.90;;;;;;5071167;28;20067;-78
2023/03/05 10:40:08;;;;;;;62.15;28.40;;;0.00;99.90;;;;;;5074389;28;20032;-76
2023/03/05 10:43:15;;;;;;;56.33;26.98;;;0.00;99.90;;;;;;5075588;28;20491;-77
2023/03/05 10:45:46;;;;;;;69.38;26.45;;;-0.10;99.90;;;;;;5074385;28;20501;-78
2023/03/05 10:48:39;;;;;;;106.82;42.67;;;-0.10;99.90;;;;;;5075452;28;20128;-78
2023/03/05 10:51:14;;;;;;;101.03;38.42;;;-0.10;99.90;;;;;;5056669;28;20096;-79
2023/03/05 10:54:03;;;;;;;57.15;29.17;;;-0.20;99.90;;;;;;5053305;28;20454;-79
2023/03/05 10:56:30;;;;;;;60.40;28.20;;;-0.20;99.90;;;;;;5054515;28;20028;-79
2023/03/05 10:58:56;;;;;;;87.68;37.10;;;-0.20;99.90;;;;;;5053003;28;20025;-79
2023/03/05 11:01:27;;;;;;;68.90;26.88;;;0.00;99.90;;;;;;5054194;28;20099;-79
2023/03/05 11:04:07;;;;;;;58.00;23.85;;;0.20;99.90;;;;;;5054344;28;20043;-79
2023/03/05 11:06:38;;;;;;;74.40;31.92;;;0.30;99.90;;;;;;5053021;28;20025;-79
2023/03/05 11:09:18;;;;;;;54.33;24.70;;;0.50;99.90;;;;;;5072960;28;20105;-79
2023/03/05 11:12:07;;;;;;;108.95;42.72;;;0.50;99.90;;;;;;5074272;28;20263;-79
2023/03/05 11:14:37;;;;;;;54.85;22.58;;;0.60;99.90;;;;;;5089722;28;20386;-79
2023/03/05 11:17:29;;;;;;;62.00;28.38;;;0.60;99.90;;;;;;5063653;28;20112;-79
2023/03/05 11:19:56;;;;;;;44.53;18.25;;;0.60;99.90;;;;;;5052888;28;20538;-79
2023/03/05 11:22:24;;;;;;;58.10;23.75;;;0.60;99.90;;;;;;5051790;28;20410;-79
2023/03/05 11:25:15;;;;;;;74.78;34.30;;;0.50;99.90;;;;;;5053510;28;20025;-79
2023/03/05 11:27:49;;;;;;;64.55;29.23;;;0.40;99.90;;;;;;5052458;28;20035;-79
2023/03/05 11:30:28;;;;;;;82.80;31.38;;;0.30;99.90;;;;;;5053833;28;20032;-79
2023/03/05 11:33:06;;;;;;;60.35;25.83;;;0.30;99.90;;;;;;5052591;28;20029;-79
2023/03/05 11:35:34;;;;;;;48.47;22.20;;;0.20;99.90;;;;;;5054070;28;20094;-77
2023/03/05 11:38:03;;;;;;;74.55;29.42;;;0.20;99.90;;;;;;5053699;28;20033;-77
2023/03/05 11:40:34;;;;;;;52.28;24.20;;;0.10;99.90;;;;;;5053918;28;20021;-79
2023/03/05 11:43:01;;;;;;;45.75;21.63;;;0.10;99.90;;;;;;5052348;28;20033;-79
2023/03/05 11:45:29;;;;;;;47.58;20.80;;;0.10;99.90;;;;;;5053760;28;20029;-77
2023/03/05 11:48:18;;;;;;;39.70;18.17;;;0.10;99.90;;;;;;5053867;28;20075;-76
2023/03/05 11:50:48;;;;;;;55.75;25.17;;;0.20;99.90;;;;;;5054486;28;20025;-76
2023/03/05 11:53:21;;;;;;;59.97;27.25;;;0.30;99.90;;;;;;5054416;28;20067;-78
2023/03/05 11:56:02;;;;;;;77.28;33.38;;;0.40;99.90;;;;;;5053612;28;20045;-77
2023/03/05 11:58:38;;;;;;;53.75;21.95;;;0.70;99.90;;;;;;5052478;28;20017;-77
2023/03/05 12:01:14;;;;;;;70.45;28.77;;;0.80;99.90;;;;;;5052848;28;20071;-77
2023/03/05 12:03:39;;;;;;;67.32;24.40;;;1.00;99.90;;;;;;5051822;28;20064;-77
2023/03/05 12:06:22;;;;;;;79.93;28.27;;;1.10;99.90;;;;;;5051981;28;20098;-78
2023/03/05 12:08:54;;;;;;;;;;;1.20;99.90;;;;;;5051248;28;20025;-77
2023/03/05 12:11:24;;;;;;;49.67;19.08;;;1.30;97.00;;;;;;5052073;28;20020;-78
2023/03/05 12:14:08;;;;;;;45.58;18.50;;;1.30;92.40;;;;;;5050650;28;20021;-78
2023/03/05 12:16:56;;;;;;;76.47;31.05;;;1.30;89.40;;;;;;5050709;28;20498;-78
2023/03/05 12:19:46;;;;;;;55.78;22.20;;;1.30;90.10;;;;;;5052000;28;20028;-78
2023/03/05 12:22:18;;;;;;;76.78;29.20;;;1.30;89.60;;;;;;5051731;28;20098;-78
2023/03/05 12:24:44;;;;;;;44.33;17.02;;;1.50;88.30;;;;;;5051482;28;20024;-78
2023/03/05 12:27:13;;;;;;;63.95;26.38;;;1.40;86.30;;;;;;5050655;28;20036;-77
2023/03/05 12:29:44;;;;;;;42.20;18.38;;;1.50;87.80;;;;;;5051666;28;20016;-77
2023/03/05 12:32:27;;;;;;;63.35;24.83;;;1.40;83.20;;;;;;5052051;28;20049;-77
2023/03/05 12:35:07;;;;;;;66.43;25.90;;;1.40;83.30;;;;;;5050843;28;20032;-77
2023/03/05 12:37:32;;;;;;;29.75;13.68;;;1.40;81.90;;;;;;5053449;28;20383;-77
2023/03/05 12:40:07;;;;;;;43.40;17.38;;;1.40;81.30;;;;;;5053533;28;20028;-78
2023/03/05 12:42:32;;;;;;;48.58;15.80;;;1.30;80.00;;;;;;5052152;28;20028;-78